Latest Weather Observations for Cooma Airport

IDN60901

Issued at 3:31 pm EST Saturday 29 April 2017 (issued every 10 minutes, with the page automatically refreshed every 10 minutes)

About weather observations | Map of Canberra area stations | Latest observations for Canberra area | Other Formats
Station Details ID: 070217 Name: COOMA AIRPORT AWS Lat: -36.29 Lon: 148.97 Height: 930.0 m
Data from the previous 72 hours. | See also: Recent months at Cooma Airport
Date/Time
EST
Temp
°C
App
Temp
°C
Dew
Point
°C
Rel
Hum
%
Delta-T
°C
Wind Press
QNH
hPa
Press
MSL
hPa
Rain since
9am
mm
Dir  Spd
km/h
Gust
km/h
Spd
kts
Gust
kts
29/03:30pm 15.8 11.4 6.5 54 4.8 SSE 19 26 10 14 1020.2 1019.0 0.0
29/03:00pm 16.1 12.1 6.8 54 4.8 SSW 17 20 9 11 1020.0 1018.9 0.0
29/02:30pm 15.8 11.1 6.0 52 5.0 SSW 20 26 11 14 1019.9 1018.8 0.0
29/02:00pm 16.0 12.0 6.7 54 4.8 SSW 17 24 9 13 1019.9 1018.8 0.0
29/01:30pm 15.6 11.1 6.3 54 4.7 S 19 26 10 14 1019.9 1018.8 0.0
29/01:00pm 14.9 11.5 6.0 55 4.5 SSW 13 19 7 10 1020.3 1019.1 0.0
29/12:30pm 14.3 11.9 5.4 55 4.4 SSE 7 15 4 8 1020.6 1019.4 0.0
29/12:00pm 14.1 11.5 6.2 59 4.0 S 9 17 5 9 1020.7 1019.5 0.0
29/11:30am 13.6 10.1 5.3 57 4.1 S 13 20 7 11 1021.1 1020.0 0.0
29/11:00am 13.5 9.9 5.2 57 4.1 SSW 13 17 7 9 1021.5 1020.3 0.0
29/10:30am 12.4 9.1 4.6 59 3.8 SSW 11 15 6 8 1021.6 1020.4 0.0
29/10:00am 10.9 8.6 5.0 67 2.8 S 6 11 3 6 1021.8 1020.7 0.0
29/09:30am 8.9 7.7 4.7 75 2.0 CALM 0 0 0 0 1021.9 1020.8 0.0
29/09:00am 7.5 5.3 5.1 85 1.1 NNE 6 7 3 4 1022.0 1020.9 0.0
29/08:30am 4.6 1.9 3.6 93 0.4 NE 7 9 4 5 1022.0 1020.9 0.0
29/08:00am 2.5 -0.2 2.4 99 0.0 NNE 6 7 3 4 1021.9 1020.8 0.0
29/07:30am 0.7 -2.3 0.6 99 0.0 NNE 6 7 3 4 1021.5 1020.3 0.0
29/07:15am -0.2 -3.4 -0.3 99 0.0 NNE 6 7 3 4 1021.3 1020.1 0.0
29/07:00am -1.3 -4.6 -1.4 99 0.0 N 6 7 3 4 1021.0 1019.9 0.0
29/06:50am -2.1 -5.5 -2.2 99 -0.1 NE 6 7 3 4 1020.9 1019.8 0.0
29/06:30am -0.4 -3.8 -0.5 99 0.0 N 7 9 4 5 1020.7 1019.5 0.0
29/06:01am -0.3 -4.1 -0.4 99 0.0 NNE 9 11 5 6 1020.7 1019.5 0.0
29/06:00am -0.3 -4.1 -0.4 99 0.0 NNE 9 11 5 6 1020.7 1019.5 0.0
29/05:56am -0.5 -4.3 -0.6 99 0.0 NNE 9 11 5 6 1020.7 1019.5 0.0
29/05:30am -2.6 -6.7 -2.7 99 -0.1 NNE 9 13 5 7 1020.6 1019.4 0.0
29/05:00am -2.8 -6.5 -2.9 99 -0.1 NNE 7 9 4 5 1020.5 1019.3 0.0
29/04:30am -2.0 -4.3 -2.1 99 -0.1 CALM 0 0 0 0 1020.7 1019.5 0.0
29/04:28am -2.1 -4.4 -2.2 99 -0.1 CALM 0 0 0 0 1020.7 1019.5 0.0
29/04:23am -2.6 -5.0 -3.0 97 0.0 CALM 0 0 0 0 1020.7 1019.5 0.0
29/04:00am -2.3 -4.6 -2.4 99 -0.1 CALM 0 0 0 0 1020.7 1019.5 0.0
29/03:30am -2.2 -4.5 -2.3 99 -0.1 CALM 0 0 0 0 1020.7 1019.5 0.0
29/03:00am -2.0 -4.3 -2.1 99 -0.1 CALM 0 0 0 0 1020.6 1019.4 0.0
29/02:30am -1.3 -3.5 -1.4 99 0.0 CALM 0 0 0 0 1020.8 1019.6 0.0
29/02:00am -1.4 -3.6 -1.5 99 0.0 CALM 0 0 0 0 1021.1 1020.0 0.0
29/01:30am -0.6 -2.7 -0.7 99 0.0 CALM 0 0 0 0 1021.1 1020.0 0.0
29/01:00am -0.5 -2.6 -0.6 99 0.0 CALM 0 0 0 0 1021.3 1020.1 0.0
29/12:30am 0.3 -1.7 0.2 99 0.0 CALM 0 0 0 0 1021.5 1020.3 0.0
29/12:00am 0.1 -1.9 0.0 99 0.0 CALM 0 0 0 0 1021.1 1020.0 0.0
 
Date/Time
EST
Temp
°C
App
Temp
°C
Dew
Point
°C
Rel
Hum
%
Delta-T
°C
Wind Press
QNH
hPa
Press
MSL
hPa
Rain since
9am
mm
Dir  Spd
km/h
Gust
km/h
Spd
kts
Gust
kts
28/11:30pm 1.1 -0.7 1.0 99 0.0 CALM 0 0 0 0 1021.5 1020.3 0.0
28/11:00pm 0.7 -1.2 0.6 99 0.0 CALM 0 0 0 0 1021.8 1020.7 0.0
28/10:30pm 0.9 -1.0 0.8 99 0.0 CALM 0 0 0 0 1021.8 1020.7 0.0
28/10:00pm -0.1 -2.3 -1.4 91 0.5 CALM 0 0 0 0 1021.7 1020.5 0.0
28/09:30pm 1.7 0.0 1.6 99 0.0 CALM 0 0 0 0 1021.8 1020.7 0.0
28/09:00pm 1.6 -0.2 1.0 96 0.2 CALM 0 0 0 0 1021.7 1020.5 0.0
28/08:30pm 1.8 0.0 0.9 94 0.4 CALM 0 0 0 0 1021.6 1020.4 0.0
28/08:00pm 3.2 1.5 2.0 92 0.5 CALM 0 0 0 0 1021.7 1020.5 0.0
28/07:30pm 2.7 0.9 1.1 89 0.7 CALM 0 0 0 0 1021.8 1020.7 0.0
28/07:00pm 4.7 3.1 2.4 85 1.0 CALM 0 0 0 0 1021.8 1020.7 0.0
28/06:30pm 5.7 4.1 2.5 80 1.4 CALM 0 0 0 0 1021.7 1020.5 0.0
28/06:00pm 7.1 5.6 2.8 74 1.9 CALM 0 0 0 0 1021.6 1020.4 0.0
28/05:30pm 8.6 5.2 3.8 72 2.2 S 11 11 6 6 1021.4 1020.2 0.0
28/05:00pm 11.7 8.4 4.7 62 3.4 S 11 13 6 7 1021.0 1019.9 0.0
28/04:30pm 14.1 12.4 3.8 50 4.9 E 2 6 1 3 1020.8 1019.6 0.0
28/04:00pm 14.6 13.3 4.3 50 5.0 CALM 0 0 0 0 1020.9 1019.8 0.0
28/03:30pm 15.1 13.8 4.2 48 5.3 CALM 0 6 0 3 1021.0 1019.9 0.0
28/03:00pm 14.1 12.0 3.8 50 4.9 SW 4 11 2 6 1021.0 1019.9 0.0
28/02:30pm 14.2 11.9 4.8 53 4.6 SW 6 11 3 6 1021.3 1020.1 0.0
28/02:00pm 12.9 10.4 3.8 54 4.3 S 6 9 3 5 1021.4 1020.2 0.0
28/01:30pm 12.7 10.3 4.4 57 4.0 SE 6 11 3 6 1021.7 1020.5 0.0
28/01:00pm 11.7 9.3 4.4 61 3.5 SSW 6 15 3 8 1022.0 1020.9 0.0
28/12:30pm 11.3 8.0 4.3 62 3.3 SW 11 19 6 10 1022.5 1021.3 0.0
28/12:00pm 10.8 7.8 4.3 64 3.1 SSW 9 19 5 10 1022.9 1021.8 0.0
28/11:30am 10.2 7.2 4.1 66 2.9 SW 9 15 5 8 1023.2 1022.1 0.0
28/11:00am 9.6 6.5 3.4 65 2.8 SW 9 15 5 8 1023.4 1022.3 0.0
28/10:30am 9.0 5.1 3.2 67 2.6 SSW 13 20 7 11 1023.8 1022.7 0.0
28/10:00am 8.2 3.7 2.4 67 2.6 S 15 22 8 12 1023.9 1022.8 0.0
28/09:30am 8.1 4.1 2.8 69 2.4 SW 13 17 7 9 1023.9 1022.8 0.0
28/09:00am 7.3 3.3 2.8 73 2.0 WSW 13 20 7 11 1023.7 1022.6 0.0
28/08:30am 6.6 2.5 2.1 73 2.0 WSW 13 17 7 9 1023.3 1022.2 0.0
28/08:00am 5.9 2.1 1.8 75 1.7 WNW 11 13 6 7 1023.1 1022.0 0.0
28/07:30am 5.0 1.5 1.5 78 1.5 W 9 11 5 6 1023.0 1021.9 0.0
28/07:00am 4.7 0.5 1.4 79 1.4 WSW 13 15 7 8 1023.0 1021.9 0.0
28/06:30am 4.4 0.5 1.1 79 1.4 WSW 11 15 6 8 1022.5 1021.3 0.0
28/06:00am 4.2 0.3 1.4 82 1.2 WSW 11 15 6 8 1022.2 1021.1 0.0
28/05:30am 4.2 0.3 1.1 80 1.3 WSW 11 15 6 8 1021.7 1020.5 0.0
28/05:00am 4.3 0.0 1.2 80 1.3 WSW 13 15 7 8 1021.8 1020.7 0.0
28/04:30am 4.1 -0.6 0.8 79 1.4 W 15 17 8 9 1021.7 1020.5 0.0
28/04:00am 4.0 -0.3 0.9 80 1.3 WSW 13 17 7 9 1021.5 1020.3 0.0
28/03:30am 3.9 -1.6 0.8 80 1.3 WSW 19 24 10 13 1021.5 1020.3 0.0
28/03:00am 3.6 -1.9 0.7 81 1.2 WSW 19 26 10 14 1021.4 1020.2 0.0
28/02:30am 2.8 -2.3 0.5 85 0.9 WSW 17 20 9 11 1021.4 1020.2 0.0
28/02:00am 2.1 -3.8 -0.5 83 1.0 WSW 20 26 11 14 1021.3 1020.1 0.0
28/01:30am 2.3 -3.3 -0.3 83 1.0 WSW 19 22 10 12 1021.4 1020.2 0.0
28/01:00am 2.4 -3.4 -0.2 83 1.0 WSW 20 26 11 14 1021.4 1020.2 0.0
28/12:30am 2.4 -3.7 0.3 86 0.8 SW 22 30 12 16 1021.3 1020.1 0.0
28/12:00am 2.9 -3.4 1.4 90 0.6 SW 24 30 13 16 1021.4 1020.2 0.0
 
Date/Time
EST
Temp
°C
App
Temp
°C
Dew
Point
°C
Rel
Hum
%
Delta-T
°C
Wind Press
QNH
hPa
Press
MSL
hPa
Rain since
9am
mm
Dir  Spd
km/h
Gust
km/h
Spd
kts
Gust
kts
27/11:30pm 1.8 -3.7 0.5 91 0.5 SW 19 20 10 11 1021.4 1020.2 0.0
27/11:00pm 2.0 -1.3 0.1 87 0.7 W 7 9 4 5 1021.5 1020.3 0.0
27/10:30pm 2.2 -1.8 0.6 89 0.6 SW 11 17 6 9 1021.6 1020.4 0.0
27/10:00pm 3.0 -0.9 1.2 88 0.7 SW 11 13 6 7 1021.6 1020.4 0.0
27/09:30pm 2.8 -2.5 1.6 92 0.5 SW 19 20 10 11 1021.6 1020.4 0.0
27/09:00pm 0.7 -4.9 -0.3 93 0.4 SW 19 22 10 12 1021.5 1020.3 0.0
27/08:30pm 0.4 -4.5 -0.7 92 0.4 SW 15 17 8 9 1020.9 1019.8 0.0
27/08:00pm 0.9 -3.7 -0.9 88 0.7 WSW 13 15 7 8 1020.8 1019.6 0.0
27/07:30pm 1.8 -3.0 0.5 91 0.5 WSW 15 19 8 10 1020.6 1019.4 0.0
27/07:00pm 2.2 -2.1 0.7 90 0.6 W 13 13 7 7 1020.2 1019.0 0.0
27/06:30pm 2.6 -2.5 0.7 87 0.8 SW 17 20 9 11 1019.9 1018.8 0.0
27/06:00pm 3.4 -2.6 1.3 86 0.9 SSW 22 26 12 14 1019.7 1018.5 0.0
27/05:30pm 4.4 -1.9 1.3 80 1.3 SSW 24 28 13 15 1019.3 1018.1 0.0
27/05:00pm 5.4 -2.7 1.3 75 1.7 SSW 33 44 18 24 1019.2 1018.0 0.0
27/04:30pm 6.2 -0.5 1.3 71 2.1 SSW 26 37 14 20 1018.8 1017.6 0.0
27/04:00pm 6.8 -1.2 1.7 70 2.2 SSW 33 41 18 22 1018.6 1017.4 0.0
27/03:30pm 7.0 -0.4 2.1 71 2.1 SSW 30 39 16 21 1018.4 1017.2 0.0
27/03:00pm 6.8 -1.1 2.5 74 1.9 SSW 33 41 18 22 1017.9 1016.6 0.0
27/02:30pm 6.9 -1.5 1.8 70 2.2 SSW 35 46 19 25 1017.5 1016.3 0.0
27/02:00pm 7.4 -0.2 2.9 73 2.0 SSW 32 39 17 21 1017.5 1016.3 0.0
27/01:30pm 7.3 -1.1 1.8 68 2.4 SSW 35 44 19 24 1017.4 1016.2 0.0
27/01:00pm 7.9 0.3 2.8 70 2.3 SSW 32 39 17 21 1017.6 1016.4 0.0
27/12:30pm 7.2 -1.7 3.3 76 1.7 SSW 39 48 21 26 1017.9 1016.6 0.0
27/12:00pm 6.2 -2.4 2.7 78 1.5 SSW 37 46 20 25 1018.1 1016.9 0.0
27/11:30am 6.6 -2.1 2.3 74 1.9 SW 37 48 20 26 1018.0 1016.7 0.0
27/11:10am 6.3 -1.4 3.3 81 1.3 SSW 33 46 18 25 1017.9 1016.6 0.0
27/11:00am 5.1 -3.0 3.0 86 0.9 SSW 35 43 19 23 1018.1 1016.9 0.0
27/10:59am 5.0 -3.2 2.7 85 1.0 SSW 35 43 19 23 1018.1 1016.9 0.0
27/10:43am 5.1 -3.0 3.3 88 0.8 SSW 35 44 19 24 1018.2 1017.0 0.0
27/10:30am 5.5 -1.9 3.8 89 0.8 SSW 32 41 17 22 1018.1 1016.9 0.0
27/10:25am 5.2 -2.8 3.7 90 0.7 SW 35 43 19 23 1018.2 1017.0 0.0
27/10:00am 5.2 -3.1 2.4 82 1.2 SW 35 41 19 22 1018.0 1016.7 0.0
27/09:30am 4.7 -3.2 2.1 83 1.1 SW 33 43 18 23 1017.8 1016.5 0.0
27/09:00am 4.5 -3.8 2.4 86 0.9 SW 35 43 19 23 1017.6 1016.4 0.4
27/08:30am 4.2 -4.1 2.1 86 0.9 SW 35 44 19 24 1017.1 1015.9 0.4
27/08:00am 3.7 -4.3 1.9 88 0.8 SW 33 39 18 21 1016.7 1015.4 0.4
27/07:30am 3.1 -4.8 1.0 86 0.9 SW 32 39 17 21 1016.2 1015.0 0.4
27/07:00am 2.7 -5.4 0.9 88 0.7 SW 33 43 18 23 1015.6 1014.3 0.4
27/06:30am 2.4 -5.5 1.1 91 0.5 SW 32 35 17 19 1015.3 1014.1 0.4
27/06:00am 2.0 -5.6 0.7 91 0.5 SW 30 35 16 19 1015.1 1013.8 0.4
27/05:30am 2.3 -5.7 0.7 89 0.6 SW 32 37 17 20 1014.9 1013.6 0.4
27/05:00am 2.5 -5.5 0.6 87 0.8 SW 32 39 17 21 1014.6 1013.3 0.4
27/04:30am 2.1 -5.6 0.2 87 0.7 SW 30 37 16 20 1014.2 1012.9 0.4
27/04:00am 1.6 -6.1 -0.3 87 0.7 SW 30 35 16 19 1014.0 1012.7 0.4
27/03:30am 1.7 -7.3 -0.2 87 0.7 SW 37 44 20 24 1014.0 1012.7 0.4
27/03:00am 2.2 -6.2 -0.7 81 1.1 SW 33 43 18 23 1014.0 1012.7 0.4
27/02:30am 1.8 -6.6 -0.9 82 1.0 SW 33 41 18 22 1014.1 1012.8 0.4
27/02:00am 1.7 -6.1 -0.7 84 0.9 SW 30 35 16 19 1014.1 1012.8 0.4
27/01:30am 0.9 -5.8 -0.9 88 0.7 SW 24 30 13 16 1014.2 1012.9 0.4
27/01:00am 0.2 -7.3 -1.4 89 0.6 SW 28 32 15 17 1014.0 1012.7 0.4
27/12:30am 0.6 -6.5 -1.2 88 0.7 SW 26 32 14 17 1014.0 1012.7 0.4
27/12:00am 0.6 -6.1 -1.2 88 0.7 SW 24 28 13 15 1014.1 1012.8 0.4
 
Date/Time
EST
Temp
°C
App
Temp
°C
Dew
Point
°C
Rel
Hum
%
Delta-T
°C
Wind Press
QNH
hPa
Press
MSL
hPa
Rain since
9am
mm
Dir  Spd
km/h
Gust
km/h
Spd
kts
Gust
kts
26/11:30pm 1.3 -6.2 -1.1 84 0.9 SW 28 33 15 18 1013.9 1012.6 0.4
26/11:00pm 1.8 -6.4 -1.1 81 1.1 SW 32 43 17 23 1013.9 1012.6 0.4
26/10:30pm 2.4 -6.0 -0.7 80 1.2 SW 33 41 18 22 1013.9 1012.6 0.4
26/10:00pm 3.1 -5.6 -0.2 79 1.3 SW 35 43 19 23 1013.8 1012.5 0.4
26/09:30pm 2.8 -5.3 0.0 82 1.1 SW 32 39 17 21 1013.7 1012.4 0.4
26/09:00pm 3.2 -5.4 0.3 81 1.2 SW 35 46 19 25 1013.2 1011.8 0.4
26/08:30pm 3.9 -3.3 0.9 81 1.2 SSW 28 37 15 20 1012.7 1011.4 0.4
26/08:00pm 4.1 -4.7 1.3 82 1.2 SW 37 48 20 26 1012.3 1010.9 0.4
26/07:30pm 4.1 -3.7 2.0 86 0.9 SW 32 41 17 22 1011.6 1010.3 0.4
26/07:00pm 4.0 -4.3 2.4 89 0.7 SW 35 43 19 23 1011.0 1009.6 0.4
26/06:30pm 4.5 -3.7 2.8 89 0.7 SW 35 44 19 24 1010.6 1009.3 0.4
26/06:00pm 4.6 -3.1 3.4 92 0.5 SW 33 43 18 23 1010.1 1008.7 0.4
26/05:30pm 5.1 -2.4 3.6 90 0.7 SW 32 43 17 23 1009.4 1008.0 0.4
26/05:00pm 5.9 -2.1 3.9 87 0.9 SW 35 44 19 24 1009.0 1007.6 0.4
26/04:59pm 6.0 -2.4 3.8 86 1.0 SW 37 44 20 24 1008.9 1007.5 0.4
26/04:49pm 6.0 -3.5 3.8 86 1.0 SSW 43 56 23 30 1008.7 1007.3 0.4
26/04:39pm 6.3 -3.5 3.6 83 1.2 SSW 44 57 24 31 1008.3 1006.9 0.4
26/04:30pm 6.4 -2.3 4.1 85 1.0 SSW 39 57 21 31 1008.2 1006.8 0.4
26/04:21pm 6.4 -1.8 5.0 91 0.6 SSW 37 46 20 25 1008.1 1006.7 0.4
26/04:00pm 7.0 -0.3 5.3 89 0.8 SW 33 44 18 24 1007.8 1006.4 0.4
26/03:45pm 7.2 0.0 6.0 92 0.6 SW 33 44 18 24 1007.5 1006.0 0.4

Latest Capital City Observations: Canberra | Sydney | Melbourne | Brisbane | Adelaide | Perth | Hobart | Darwin

Other Formats:

Comma delimited format used in spreadsheet applications
http://www.bom.gov.au/fwo/IDN60903/IDN60903.94921.axf

JavaScript Object Notation format (JSON) in row-major order
http://www.bom.gov.au/fwo/IDN60903/IDN60903.94921.json